sensor_id;sensor_type;location;lat;lon;timestamp;temperature;humidity
67364;HTU21D;54250;45.572;38.086;2022-09-09T00:00:14;8.13;61.90
67364;HTU21D;54250;45.572;38.086;2022-09-09T00:02:42;8.21;61.71
67364;HTU21D;54250;45.572;38.086;2022-09-09T00:07:41;8.16;61.94
67364;HTU21D;54250;45.572;38.086;2022-09-09T00:10:13;8.17;62.13
67364;HTU21D;54250;45.572;38.086;2022-09-09T00:15:27;8.29;62.26
67364;HTU21D;54250;45.572;38.086;2022-09-09T00:18:07;8.41;62.56
67364;HTU21D;54250;45.572;38.086;2022-09-09T00:23:29;8.52;62.76
67364;HTU21D;54250;45.572;38.086;2022-09-09T00:28:27;8.39;63.58
67364;HTU21D;54250;45.572;38.086;2022-09-09T00:31:18;8.35;64.19
67364;HTU21D;54250;45.572;38.086;2022-09-09T00:33:46;8.34;64.89
67364;HTU21D;54250;45.572;38.086;2022-09-09T00:36:13;8.33;65.19
67364;HTU21D;54250;45.572;38.086;2022-09-09T00:38:47;8.33;65.07
67364;HTU21D;54250;45.572;38.086;2022-09-09T00:41:41;8.41;64.58
67364;HTU21D;54250;45.572;38.086;2022-09-09T00:44:02;8.46;64.30
67364;HTU21D;54250;45.572;38.086;2022-09-09T00:57:00;8.32;64.53
67364;HTU21D;54250;45.572;38.086;2022-09-09T01:01:57;8.20;64.66
67364;HTU21D;54250;45.572;38.086;2022-09-09T01:04:29;8.20;64.66
67364;HTU21D;54250;45.572;38.086;2022-09-09T01:07:01;8.19;64.57
67364;HTU21D;54250;45.572;38.086;2022-09-09T01:09:36;8.17;64.59
67364;HTU21D;54250;45.572;38.086;2022-09-09T01:12:23;8.08;64.59
67364;HTU21D;54250;45.572;38.086;2022-09-09T01:14:52;8.00;64.59
67364;HTU21D;54250;45.572;38.086;2022-09-09T01:20:06;7.84;64.66
67364;HTU21D;54250;45.572;38.086;2022-09-09T01:22:49;7.76;64.64
67364;HTU21D;54250;45.572;38.086;2022-09-09T01:28:00;7.64;64.60
67364;HTU21D;54250;45.572;38.086;2022-09-09T01:30:28;7.59;64.59
67364;HTU21D;54250;45.572;38.086;2022-09-09T01:32:56;7.55;64.58
67364;HTU21D;54250;45.572;38.086;2022-09-09T01:35:29;7.52;64.60
67364;HTU21D;54250;45.572;38.086;2022-09-09T01:38:00;7.48;64.51
67364;HTU21D;54250;45.572;38.086;2022-09-09T01:40:26;7.43;64.44
67364;HTU21D;54250;45.572;38.086;2022-09-09T01:42:54;7.40;64.44
67364;HTU21D;54250;45.572;38.086;2022-09-09T01:45:20;7.42;64.40
67364;HTU21D;54250;45.572;38.086;2022-09-09T01:47:47;7.42;64.37
67364;HTU21D;54250;45.572;38.086;2022-09-09T01:50:20;7.44;64.39
67364;HTU21D;54250;45.572;38.086;2022-09-09T01:52:47;7.42;64.40
67364;HTU21D;54250;45.572;38.086;2022-09-09T01:55:20;7.42;64.49
67364;HTU21D;54250;45.572;38.086;2022-09-09T01:57:56;7.43;64.57
67364;HTU21D;54250;45.572;38.086;2022-09-09T02:00:27;7.43;64.63
67364;HTU21D;54250;45.572;38.086;2022-09-09T02:03:05;7.41;64.67
67364;HTU21D;54250;45.572;38.086;2022-09-09T02:08:46;7.34;64.61
67364;HTU21D;54250;45.572;38.086;2022-09-09T02:11:15;7.31;64.63
67364;HTU21D;54250;45.572;38.086;2022-09-09T02:13:57;7.30;64.71
67364;HTU21D;54250;45.572;38.086;2022-09-09T02:19:18;7.34;64.94
67364;HTU21D;54250;45.572;38.086;2022-09-09T02:22:17;7.42;65.08
67364;HTU21D;54250;45.572;38.086;2022-09-09T02:24:44;7.50;65.11
67364;HTU21D;54250;45.572;38.086;2022-09-09T02:27:24;7.61;65.05
67364;HTU21D;54250;45.572;38.086;2022-09-09T02:29:51;7.67;65.22
67364;HTU21D;54250;45.572;38.086;2022-09-09T02:32:28;7.67;65.43
67364;HTU21D;54250;45.572;38.086;2022-09-09T02:34:58;7.65;65.46
67364;HTU21D;54250;45.572;38.086;2022-09-09T02:37:31;7.63;65.53
67364;HTU21D;54250;45.572;38.086;2022-09-09T02:40:02;7.62;65.56
67364;HTU21D;54250;45.572;38.086;2022-09-09T02:42:29;7.62;65.59
67364;HTU21D;54250;45.572;38.086;2022-09-09T02:44:57;7.59;65.56
67364;HTU21D;54250;45.572;38.086;2022-09-09T02:47:31;7.55;65.59
67364;HTU21D;54250;45.572;38.086;2022-09-09T02:55:03;7.53;65.24
67364;HTU21D;54250;45.572;38.086;2022-09-09T02:57:30;7.53;65.15
67364;HTU21D;54250;45.572;38.086;2022-09-09T03:00:00;7.54;65.09
67364;HTU21D;54250;45.572;38.086;2022-09-09T03:02:29;7.61;64.98
67364;HTU21D;54250;45.572;38.086;2022-09-09T03:05:01;7.71;64.79
67364;HTU21D;54250;45.572;38.086;2022-09-09T03:07:28;7.75;64.85
67364;HTU21D;54250;45.572;38.086;2022-09-09T03:09:54;7.81;64.88
67364;HTU21D;54250;45.572;38.086;2022-09-09T03:12:22;7.82;64.87
67364;HTU21D;54250;45.572;38.086;2022-09-09T03:14:48;7.84;64.88
67364;HTU21D;54250;45.572;38.086;2022-09-09T03:17:14;7.91;64.85
67364;HTU21D;54250;45.572;38.086;2022-09-09T03:19:47;7.99;64.79
67364;HTU21D;54250;45.572;38.086;2022-09-09T03:22:15;8.02;64.89
67364;HTU21D;54250;45.572;38.086;2022-09-09T03:24:43;8.04;64.95
67364;HTU21D;54250;45.572;38.086;2022-09-09T03:27:08;8.05;65.02
67364;HTU21D;54250;45.572;38.086;2022-09-09T03:29:36;8.12;65.04
67364;HTU21D;54250;45.572;38.086;2022-09-09T03:32:06;8.26;64.88
67364;HTU21D;54250;45.572;38.086;2022-09-09T03:34:32;8.49;64.69
67364;HTU21D;54250;45.572;38.086;2022-09-09T03:36:58;8.74;64.52
67364;HTU21D;54250;45.572;38.086;2022-09-09T03:39:25;8.97;64.66
67364;HTU21D;54250;45.572;38.086;2022-09-09T03:41:51;9.08;64.75
67364;HTU21D;54250;45.572;38.086;2022-09-09T03:44:17;9.11;64.80
67364;HTU21D;54250;45.572;38.086;2022-09-09T03:46:43;9.09;64.88
67364;HTU21D;54250;45.572;38.086;2022-09-09T03:49:09;9.14;64.98
67364;HTU21D;54250;45.572;38.086;2022-09-09T03:51:35;9.38;64.75
67364;HTU21D;54250;45.572;38.086;2022-09-09T03:54:02;9.78;64.18
67364;HTU21D;54250;45.572;38.086;2022-09-09T03:56:31;10.18;63.66
67364;HTU21D;54250;45.572;38.086;2022-09-09T03:58:58;10.45;63.53
67364;HTU21D;54250;45.572;38.086;2022-09-09T04:01:24;10.79;63.54
67364;HTU21D;54250;45.572;38.086;2022-09-09T04:03:50;11.04;63.35
67364;HTU21D;54250;45.572;38.086;2022-09-09T04:06:18;11.04;64.05
67364;HTU21D;54250;45.572;38.086;2022-09-09T04:08:46;11.09;64.69
67364;HTU21D;54250;45.572;38.086;2022-09-09T04:11:15;11.18;64.72
67364;HTU21D;54250;45.572;38.086;2022-09-09T04:13:41;11.28;64.76
67364;HTU21D;54250;45.572;38.086;2022-09-09T04:16:10;11.32;64.86
67364;HTU21D;54250;45.572;38.086;2022-09-09T04:18:37;11.42;64.93
67364;HTU21D;54250;45.572;38.086;2022-09-09T04:21:04;11.52;64.97
67364;HTU21D;54250;45.572;38.086;2022-09-09T04:23:32;11.68;64.81
67364;HTU21D;54250;45.572;38.086;2022-09-09T04:25:59;11.91;64.41
67364;HTU21D;54250;45.572;38.086;2022-09-09T04:28:27;12.16;64.00
67364;HTU21D;54250;45.572;38.086;2022-09-09T04:30:53;12.44;63.55
67364;HTU21D;54250;45.572;38.086;2022-09-09T04:33:19;12.74;63.09
67364;HTU21D;54250;45.572;38.086;2022-09-09T04:35:48;13.06;62.57
67364;HTU21D;54250;45.572;38.086;2022-09-09T04:38:16;13.39;61.99
67364;HTU21D;54250;45.572;38.086;2022-09-09T04:40:46;13.69;61.50
67364;HTU21D;54250;45.572;38.086;2022-09-09T04:43:13;13.99;61.09
67364;HTU21D;54250;45.572;38.086;2022-09-09T04:45:42;14.26;60.67
67364;HTU21D;54250;45.572;38.086;2022-09-09T04:48:08;14.44;60.50
67364;HTU21D;54250;45.572;38.086;2022-09-09T04:50:35;14.64;60.37
67364;HTU21D;54250;45.572;38.086;2022-09-09T04:53:01;14.80;60.29
67364;HTU21D;54250;45.572;38.086;2022-09-09T04:55:28;14.87;60.44
67364;HTU21D;54250;45.572;38.086;2022-09-09T04:57:54;14.95;60.44
67364;HTU21D;54250;45.572;38.086;2022-09-09T05:00:20;15.01;60.46
67364;HTU21D;54250;45.572;38.086;2022-09-09T05:02:48;15.03;60.64
67364;HTU21D;54250;45.572;38.086;2022-09-09T05:05:14;15.08;60.83
67364;HTU21D;54250;45.572;38.086;2022-09-09T05:07:40;15.19;60.77
67364;HTU21D;54250;45.572;38.086;2022-09-09T05:10:07;15.39;60.49
67364;HTU21D;54250;45.572;38.086;2022-09-09T05:12:33;15.57;60.27
67364;HTU21D;54250;45.572;38.086;2022-09-09T05:15:00;15.63;60.27
67364;HTU21D;54250;45.572;38.086;2022-09-09T05:17:26;15.67;60.27
67364;HTU21D;54250;45.572;38.086;2022-09-09T05:19:53;15.73;60.22
67364;HTU21D;54250;45.572;38.086;2022-09-09T05:22:19;15.78;60.21
67364;HTU21D;54250;45.572;38.086;2022-09-09T05:24:47;15.85;60.27
67364;HTU21D;54250;45.572;38.086;2022-09-09T05:27:13;15.93;60.22
67364;HTU21D;54250;45.572;38.086;2022-09-09T05:29:40;16.06;60.24
67364;HTU21D;54250;45.572;38.086;2022-09-09T05:32:08;16.16;60.28
67364;HTU21D;54250;45.572;38.086;2022-09-09T05:34:35;16.31;60.17
67364;HTU21D;54250;45.572;38.086;2022-09-09T05:37:04;16.54;59.96
67364;HTU21D;54250;45.572;38.086;2022-09-09T05:39:31;16.78;59.84
67364;HTU21D;54250;45.572;38.086;2022-09-09T05:41:58;17.29;59.09
67364;HTU21D;54250;45.572;38.086;2022-09-09T05:44:24;18.13;58.16
67364;HTU21D;54250;45.572;38.086;2022-09-09T05:46:53;19.79;56.00
67364;HTU21D;54250;45.572;38.086;2022-09-09T05:49:21;20.84;53.84
67364;HTU21D;54250;45.572;38.086;2022-09-09T05:51:47;21.07;54.59
67364;HTU21D;54250;45.572;38.086;2022-09-09T05:54:16;21.72;53.79
67364;HTU21D;54250;45.572;38.086;2022-09-09T05:56:46;21.45;54.43
67364;HTU21D;54250;45.572;38.086;2022-09-09T05:59:15;21.05;55.47
67364;HTU21D;54250;45.572;38.086;2022-09-09T06:01:41;20.88;56.14
67364;HTU21D;54250;45.572;38.086;2022-09-09T06:04:13;21.05;56.00
67364;HTU21D;54250;45.572;38.086;2022-09-09T06:06:40;21.43;55.59
67364;HTU21D;54250;45.572;38.086;2022-09-09T06:09:16;21.90;54.69
67364;HTU21D;54250;45.572;38.086;2022-09-09T06:11:43;22.13;54.33
67364;HTU21D;54250;45.572;38.086;2022-09-09T06:14:10;21.78;55.03
67364;HTU21D;54250;45.572;38.086;2022-09-09T06:16:37;21.52;55.52
67364;HTU21D;54250;45.572;38.086;2022-09-09T06:19:06;21.25;56.02
67364;HTU21D;54250;45.572;38.086;2022-09-09T06:21:34;20.98;56.48
67364;HTU21D;54250;45.572;38.086;2022-09-09T06:24:02;20.83;56.66
67364;HTU21D;54250;45.572;38.086;2022-09-09T06:26:32;20.74;56.75
67364;HTU21D;54250;45.572;38.086;2022-09-09T06:29:00;20.81;56.56
67364;HTU21D;54250;45.572;38.086;2022-09-09T06:31:28;21.15;55.94
67364;HTU21D;54250;45.572;38.086;2022-09-09T06:34:00;21.74;54.83
67364;HTU21D;54250;45.572;38.086;2022-09-09T06:36:29;23.36;52.57
67364;HTU21D;54250;45.572;38.086;2022-09-09T06:38:57;27.09;46.58
67364;HTU21D;54250;45.572;38.086;2022-09-09T06:41:24;30.31;42.31
67364;HTU21D;54250;45.572;38.086;2022-09-09T06:43:51;31.55;40.47
67364;HTU21D;54250;45.572;38.086;2022-09-09T06:46:27;30.21;43.17
67364;HTU21D;54250;45.572;38.086;2022-09-09T06:48:54;29.94;44.45
67364;HTU21D;54250;45.572;38.086;2022-09-09T06:51:26;31.36;42.49
67364;HTU21D;54250;45.572;38.086;2022-09-09T06:53:53;33.33;40.05
67364;HTU21D;54250;45.572;38.086;2022-09-09T06:56:24;34.15;38.61
67364;HTU21D;54250;45.572;38.086;2022-09-09T06:58:53;34.64;38.23
67364;HTU21D;54250;45.572;38.086;2022-09-09T07:01:25;35.88;37.27
67364;HTU21D;54250;45.572;38.086;2022-09-09T07:03:54;37.29;35.39
67364;HTU21D;54250;45.572;38.086;2022-09-09T07:06:24;38.33;34.25
67364;HTU21D;54250;45.572;38.086;2022-09-09T07:08:51;39.63;32.38
67364;HTU21D;54250;45.572;38.086;2022-09-09T07:11:18;37.69;35.08
67364;HTU21D;54250;45.572;38.086;2022-09-09T07:13:44;35.85;37.73
67364;HTU21D;54250;45.572;38.086;2022-09-09T07:16:11;35.64;38.01
67364;HTU21D;54250;45.572;38.086;2022-09-09T07:18:38;34.96;38.14
67364;HTU21D;54250;45.572;38.086;2022-09-09T07:21:06;33.72;39.65
67364;HTU21D;54250;45.572;38.086;2022-09-09T07:23:33;33.49;39.59
67364;HTU21D;54250;45.572;38.086;2022-09-09T07:26:01;33.65;38.95
67364;HTU21D;54250;45.572;38.086;2022-09-09T07:28:28;35.07;37.46
67364;HTU21D;54250;45.572;38.086;2022-09-09T07:30:57;36.83;34.52
67364;HTU21D;54250;45.572;38.086;2022-09-09T07:33:24;36.15;34.77
67364;HTU21D;54250;45.572;38.086;2022-09-09T07:35:50;34.97;36.72
67364;HTU21D;54250;45.572;38.086;2022-09-09T07:38:16;34.37;37.02
67364;HTU21D;54250;45.572;38.086;2022-09-09T07:40:42;33.50;38.06
67364;HTU21D;54250;45.572;38.086;2022-09-09T07:43:09;34.19;36.98
67364;HTU21D;54250;45.572;38.086;2022-09-09T07:45:36;35.83;35.02
67364;HTU21D;54250;45.572;38.086;2022-09-09T07:48:02;37.23;33.21
67364;HTU21D;54250;45.572;38.086;2022-09-09T07:50:29;38.39;31.72
67364;HTU21D;54250;45.572;38.086;2022-09-09T07:52:56;38.88;30.86
67364;HTU21D;54250;45.572;38.086;2022-09-09T07:55:22;38.91;30.04
67364;HTU21D;54250;45.572;38.086;2022-09-09T07:57:52;39.26;29.96
67364;HTU21D;54250;45.572;38.086;2022-09-09T08:00:19;39.70;29.16
67364;HTU21D;54250;45.572;38.086;2022-09-09T08:02:51;39.69;28.75
67364;HTU21D;54250;45.572;38.086;2022-09-09T08:05:19;40.10;27.91
67364;HTU21D;54250;45.572;38.086;2022-09-09T08:07:46;40.74;27.89
67364;HTU21D;54250;45.572;38.086;2022-09-09T08:10:12;40.59;27.04
67364;HTU21D;54250;45.572;38.086;2022-09-09T08:12:40;40.84;27.43
67364;HTU21D;54250;45.572;38.086;2022-09-09T08:15:06;40.19;27.75
67364;HTU21D;54250;45.572;38.086;2022-09-09T08:17:33;40.06;27.79
67364;HTU21D;54250;45.572;38.086;2022-09-09T08:20:03;40.89;26.91
67364;HTU21D;54250;45.572;38.086;2022-09-09T08:22:33;41.61;25.71
67364;HTU21D;54250;45.572;38.086;2022-09-09T08:24:59;42.05;24.55
67364;HTU21D;54250;45.572;38.086;2022-09-09T08:27:26;42.14;24.41
67364;HTU21D;54250;45.572;38.086;2022-09-09T08:29:53;42.38;23.90
67364;HTU21D;54250;45.572;38.086;2022-09-09T08:32:18;42.79;23.90
67364;HTU21D;54250;45.572;38.086;2022-09-09T08:34:45;42.59;23.79
67364;HTU21D;54250;45.572;38.086;2022-09-09T08:37:16;41.99;23.69
67364;HTU21D;54250;45.572;38.086;2022-09-09T08:39:43;40.67;25.75
67364;HTU21D;54250;45.572;38.086;2022-09-09T08:47:14;40.06;24.64
67364;HTU21D;54250;45.572;38.086;2022-09-09T08:57:57;40.04;24.90
67364;HTU21D;54250;45.572;38.086;2022-09-09T09:00:32;39.85;24.50
67364;HTU21D;54250;45.572;38.086;2022-09-09T09:05:45;39.08;25.07
67364;HTU21D;54250;45.572;38.086;2022-09-09T09:10:48;39.86;23.88
67364;HTU21D;54250;45.572;38.086;2022-09-09T09:13:20;39.98;24.16
67364;HTU21D;54250;45.572;38.086;2022-09-09T09:15:55;40.54;22.82
67364;HTU21D;54250;45.572;38.086;2022-09-09T09:18:24;41.12;22.68
67364;HTU21D;54250;45.572;38.086;2022-09-09T09:20:57;41.41;22.23
67364;HTU21D;54250;45.572;38.086;2022-09-09T09:23:25;41.56;22.64
67364;HTU21D;54250;45.572;38.086;2022-09-09T09:25:58;41.44;22.49
67364;HTU21D;54250;45.572;38.086;2022-09-09T09:28:27;41.00;22.08
67364;HTU21D;54250;45.572;38.086;2022-09-09T09:31:03;39.81;23.24
67364;HTU21D;54250;45.572;38.086;2022-09-09T09:36:00;39.38;23.59
67364;HTU21D;54250;45.572;38.086;2022-09-09T09:38:28;39.44;23.40
67364;HTU21D;54250;45.572;38.086;2022-09-09T09:40:58;39.35;23.01
67364;HTU21D;54250;45.572;38.086;2022-09-09T09:45:52;38.50;24.59
67364;HTU21D;54250;45.572;38.086;2022-09-09T09:48:18;38.95;24.34
67364;HTU21D;54250;45.572;38.086;2022-09-09T09:50:57;39.37;24.23
67364;HTU21D;54250;45.572;38.086;2022-09-09T09:53:26;39.88;23.70
67364;HTU21D;54250;45.572;38.086;2022-09-09T09:58:22;40.14;23.82
67364;HTU21D;54250;45.572;38.086;2022-09-09T10:00:49;39.44;24.11
67364;HTU21D;54250;45.572;38.086;2022-09-09T10:03:21;37.84;25.53
67364;HTU21D;54250;45.572;38.086;2022-09-09T10:05:49;35.86;27.36
67364;HTU21D;54250;45.572;38.086;2022-09-09T10:08:16;33.70;29.53
67364;HTU21D;54250;45.572;38.086;2022-09-09T10:16:14;30.86;32.35
67364;HTU21D;54250;45.572;38.086;2022-09-09T10:34:02;28.17;34.36
67364;HTU21D;54250;45.572;38.086;2022-09-09T10:36:32;28.13;34.36
67364;HTU21D;54250;45.572;38.086;2022-09-09T10:39:03;28.10;34.33
67364;HTU21D;54250;45.572;38.086;2022-09-09T10:44:20;28.06;34.37
67364;HTU21D;54250;45.572;38.086;2022-09-09T10:55:02;27.23;35.10
67364;HTU21D;54250;45.572;38.086;2022-09-09T10:57:42;27.32;35.01
67364;HTU21D;54250;45.572;38.086;2022-09-09T11:00:17;27.41;34.99
67364;HTU21D;54250;45.572;38.086;2022-09-09T11:02:43;27.51;34.99
67364;HTU21D;54250;45.572;38.086;2022-09-09T11:05:31;27.56;35.01
67364;HTU21D;54250;45.572;38.086;2022-09-09T11:08:03;27.58;35.09
67364;HTU21D;54250;45.572;38.086;2022-09-09T11:13:01;27.52;35.30
67364;HTU21D;54250;45.572;38.086;2022-09-09T11:15:39;27.44;35.43
67364;HTU21D;54250;45.572;38.086;2022-09-09T11:18:08;27.30;35.63
67364;HTU21D;54250;45.572;38.086;2022-09-09T11:20:35;27.28;35.70
67364;HTU21D;54250;45.572;38.086;2022-09-09T11:23:03;27.34;35.71
67364;HTU21D;54250;45.572;38.086;2022-09-09T11:25:34;27.36;35.74
67364;HTU21D;54250;45.572;38.086;2022-09-09T11:28:13;27.27;35.84
67364;HTU21D;54250;45.572;38.086;2022-09-09T11:30:52;27.00;36.02
67364;HTU21D;54250;45.572;38.086;2022-09-09T11:33:31;26.89;36.17
67364;HTU21D;54250;45.572;38.086;2022-09-09T11:38:33;26.76;36.24
67364;HTU21D;54250;45.572;38.086;2022-09-09T11:41:04;26.75;36.25
67364;HTU21D;54250;45.572;38.086;2022-09-09T11:45:59;26.54;36.46
67364;HTU21D;54250;45.572;38.086;2022-09-09T11:48:35;26.32;36.68
67364;HTU21D;54250;45.572;38.086;2022-09-09T11:53:30;26.05;36.91
67364;HTU21D;54250;45.572;38.086;2022-09-09T11:56:04;26.10;36.84
67364;HTU21D;54250;45.572;38.086;2022-09-09T11:58:33;26.27;36.63
67364;HTU21D;54250;45.572;38.086;2022-09-09T12:01:01;26.57;36.35
67364;HTU21D;54250;45.572;38.086;2022-09-09T12:03:48;26.80;36.12
67364;HTU21D;54250;45.572;38.086;2022-09-09T12:08:43;26.82;36.21
67364;HTU21D;54250;45.572;38.086;2022-09-09T12:11:10;26.75;36.39
67364;HTU21D;54250;45.572;38.086;2022-09-09T12:13:36;26.68;36.53
67364;HTU21D;54250;45.572;38.086;2022-09-09T12:16:02;26.55;36.70
67364;HTU21D;54250;45.572;38.086;2022-09-09T12:18:40;26.54;36.76
67364;HTU21D;54250;45.572;38.086;2022-09-09T12:23:40;26.46;36.87
67364;HTU21D;54250;45.572;38.086;2022-09-09T12:31:21;26.33;37.13
67364;HTU21D;54250;45.572;38.086;2022-09-09T12:33:49;26.41;37.11
67364;HTU21D;54250;45.572;38.086;2022-09-09T12:36:24;26.48;37.05
67364;HTU21D;54250;45.572;38.086;2022-09-09T12:38:53;26.58;36.97
67364;HTU21D;54250;45.572;38.086;2022-09-09T12:41:23;26.60;36.98
67364;HTU21D;54250;45.572;38.086;2022-09-09T12:43:50;26.50;37.08
67364;HTU21D;54250;45.572;38.086;2022-09-09T12:46:26;26.33;37.32
67364;HTU21D;54250;45.572;38.086;2022-09-09T12:48:55;26.10;37.56
67364;HTU21D;54250;45.572;38.086;2022-09-09T12:51:31;25.82;37.81
67364;HTU21D;54250;45.572;38.086;2022-09-09T12:53:58;25.57;38.08
67364;HTU21D;54250;45.572;38.086;2022-09-09T12:56:27;25.47;38.15
67364;HTU21D;54250;45.572;38.086;2022-09-09T12:58:55;25.42;38.19
67364;HTU21D;54250;45.572;38.086;2022-09-09T13:01:25;25.35;38.23
67364;HTU21D;54250;45.572;38.086;2022-09-09T13:03:52;25.30;38.30
67364;HTU21D;54250;45.572;38.086;2022-09-09T13:06:20;25.18;38.39
67364;HTU21D;54250;45.572;38.086;2022-09-09T13:08:46;25.05;38.51
67364;HTU21D;54250;45.572;38.086;2022-09-09T13:11:13;24.87;38.65
67364;HTU21D;54250;45.572;38.086;2022-09-09T13:13:40;24.75;38.76
67364;HTU21D;54250;45.572;38.086;2022-09-09T13:16:25;24.69;38.83
67364;HTU21D;54250;45.572;38.086;2022-09-09T13:19:00;24.59;38.89
67364;HTU21D;54250;45.572;38.086;2022-09-09T13:21:39;24.48;38.98
67364;HTU21D;54250;45.572;38.086;2022-09-09T13:24:06;24.41;39.08
67364;HTU21D;54250;45.572;38.086;2022-09-09T13:26:33;24.30;39.21
67364;HTU21D;54250;45.572;38.086;2022-09-09T13:29:15;24.20;39.29
67364;HTU21D;54250;45.572;38.086;2022-09-09T13:31:43;24.14;39.33
67364;HTU21D;54250;45.572;38.086;2022-09-09T13:34:13;24.05;39.41
67364;HTU21D;54250;45.572;38.086;2022-09-09T13:36:39;23.95;39.51
67364;HTU21D;54250;45.572;38.086;2022-09-09T13:39:14;23.84;39.76
67364;HTU21D;54250;45.572;38.086;2022-09-09T13:41:44;23.72;39.91
67364;HTU21D;54250;45.572;38.086;2022-09-09T13:44:26;23.59;40.03
67364;HTU21D;54250;45.572;38.086;2022-09-09T13:47:15;23.49;40.26
67364;HTU21D;54250;45.572;38.086;2022-09-09T13:49:42;23.39;40.26
67364;HTU21D;54250;45.572;38.086;2022-09-09T13:52:10;23.32;40.33
67364;HTU21D;54250;45.572;38.086;2022-09-09T13:54:37;23.26;40.38
67364;HTU21D;54250;45.572;38.086;2022-09-09T13:57:03;23.21;40.44
67364;HTU21D;54250;45.572;38.086;2022-09-09T13:59:30;23.12;40.62
67364;HTU21D;54250;45.572;38.086;2022-09-09T14:01:57;23.08;40.81
67364;HTU21D;54250;45.572;38.086;2022-09-09T14:04:23;22.99;40.96
67364;HTU21D;54250;45.572;38.086;2022-09-09T14:06:49;22.88;41.17
67364;HTU21D;54250;45.572;38.086;2022-09-09T14:09:16;22.80;41.30
67364;HTU21D;54250;45.572;38.086;2022-09-09T14:11:43;22.72;41.42
67364;HTU21D;54250;45.572;38.086;2022-09-09T14:14:09;22.65;41.45
67364;HTU21D;54250;45.572;38.086;2022-09-09T14:16:35;22.55;41.54
67364;HTU21D;54250;45.572;38.086;2022-09-09T14:19:01;22.47;41.61
67364;HTU21D;54250;45.572;38.086;2022-09-09T14:21:27;22.36;41.71
67364;HTU21D;54250;45.572;38.086;2022-09-09T14:23:52;22.27;41.81
67364;HTU21D;54250;45.572;38.086;2022-09-09T14:26:19;22.18;41.90
67364;HTU21D;54250;45.572;38.086;2022-09-09T14:28:46;22.06;41.97
67364;HTU21D;54250;45.572;38.086;2022-09-09T14:31:12;21.95;42.05
67364;HTU21D;54250;45.572;38.086;2022-09-09T14:33:39;21.85;42.16
67364;HTU21D;54250;45.572;38.086;2022-09-09T14:36:04;21.77;42.32
67364;HTU21D;54250;45.572;38.086;2022-09-09T14:38:32;21.67;42.37
67364;HTU21D;54250;45.572;38.086;2022-09-09T14:40:59;21.59;42.48
67364;HTU21D;54250;45.572;38.086;2022-09-09T14:43:25;21.47;42.61
67364;HTU21D;54250;45.572;38.086;2022-09-09T14:45:52;21.40;42.66
67364;HTU21D;54250;45.572;38.086;2022-09-09T14:48:18;21.32;42.76
67364;HTU21D;54250;45.572;38.086;2022-09-09T14:50:44;21.21;42.88
67364;HTU21D;54250;45.572;38.086;2022-09-09T14:53:10;21.07;42.98
67364;HTU21D;54250;45.572;38.086;2022-09-09T14:55:36;20.91;43.13
67364;HTU21D;54250;45.572;38.086;2022-09-09T14:58:02;20.75;43.32
67364;HTU21D;54250;45.572;38.086;2022-09-09T15:00:28;20.60;43.49
67364;HTU21D;54250;45.572;38.086;2022-09-09T15:02:54;20.41;43.61
67364;HTU21D;54250;45.572;38.086;2022-09-09T15:05:20;20.22;43.75
67364;HTU21D;54250;45.572;38.086;2022-09-09T15:07:46;20.04;43.88
67364;HTU21D;54250;45.572;38.086;2022-09-09T15:10:14;19.89;44.00
67364;HTU21D;54250;45.572;38.086;2022-09-09T15:12:40;19.74;44.13
67364;HTU21D;54250;45.572;38.086;2022-09-09T15:15:07;19.57;44.23
67364;HTU21D;54250;45.572;38.086;2022-09-09T15:17:33;19.41;44.38
67364;HTU21D;54250;45.572;38.086;2022-09-09T15:19:59;19.26;44.48
67364;HTU21D;54250;45.572;38.086;2022-09-09T15:22:24;19.10;44.56
67364;HTU21D;54250;45.572;38.086;2022-09-09T15:24:50;18.96;44.67
67364;HTU21D;54250;45.572;38.086;2022-09-09T15:27:16;18.84;44.77
67364;HTU21D;54250;45.572;38.086;2022-09-09T15:29:43;18.71;44.90
67364;HTU21D;54250;45.572;38.086;2022-09-09T15:32:09;18.58;44.99
67364;HTU21D;54250;45.572;38.086;2022-09-09T15:34:35;18.48;45.11
67364;HTU21D;54250;45.572;38.086;2022-09-09T15:37:01;18.39;45.17
67364;HTU21D;54250;45.572;38.086;2022-09-09T15:39:27;18.26;45.26
67364;HTU21D;54250;45.572;38.086;2022-09-09T15:41:53;18.11;45.34
67364;HTU21D;54250;45.572;38.086;2022-09-09T15:44:19;17.99;45.46
67364;HTU21D;54250;45.572;38.086;2022-09-09T15:46:46;17.87;45.61
67364;HTU21D;54250;45.572;38.086;2022-09-09T15:51:40;17.63;45.79
67364;HTU21D;54250;45.572;38.086;2022-09-09T15:54:08;17.53;45.83
67364;HTU21D;54250;45.572;38.086;2022-09-09T15:56:34;17.45;45.93
67364;HTU21D;54250;45.572;38.086;2022-09-09T15:59:00;17.37;46.04
67364;HTU21D;54250;45.572;38.086;2022-09-09T16:01:28;17.26;46.12
67364;HTU21D;54250;45.572;38.086;2022-09-09T16:03:54;17.15;46.20
67364;HTU21D;54250;45.572;38.086;2022-09-09T16:06:21;17.04;46.31
67364;HTU21D;54250;45.572;38.086;2022-09-09T16:08:49;16.96;46.44
67364;HTU21D;54250;45.572;38.086;2022-09-09T16:13:45;16.76;46.75
67364;HTU21D;54250;45.572;38.086;2022-09-09T16:16:12;16.67;46.90
67364;HTU21D;54250;45.572;38.086;2022-09-09T16:18:39;16.57;47.08
67364;HTU21D;54250;45.572;38.086;2022-09-09T16:21:05;16.48;47.23
67364;HTU21D;54250;45.572;38.086;2022-09-09T16:23:31;16.39;47.42
67364;HTU21D;54250;45.572;38.086;2022-09-09T16:25:57;16.28;47.64
67364;HTU21D;54250;45.572;38.086;2022-09-09T16:28:23;16.18;47.77
67364;HTU21D;54250;45.572;38.086;2022-09-09T16:30:49;16.07;47.90
67364;HTU21D;54250;45.572;38.086;2022-09-09T16:33:16;15.96;48.12
67364;HTU21D;54250;45.572;38.086;2022-09-09T16:35:42;15.84;48.36
67364;HTU21D;54250;45.572;38.086;2022-09-09T16:38:08;15.77;48.50
67364;HTU21D;54250;45.572;38.086;2022-09-09T16:40:34;15.71;48.72
67364;HTU21D;54250;45.572;38.086;2022-09-09T16:43:00;15.62;48.89
67364;HTU21D;54250;45.572;38.086;2022-09-09T16:45:26;15.56;49.17
67364;HTU21D;54250;45.572;38.086;2022-09-09T16:47:52;15.49;49.33
67364;HTU21D;54250;45.572;38.086;2022-09-09T16:50:18;15.42;49.47
67364;HTU21D;54250;45.572;38.086;2022-09-09T16:52:45;15.34;49.62
67364;HTU21D;54250;45.572;38.086;2022-09-09T16:55:11;15.29;49.76
67364;HTU21D;54250;45.572;38.086;2022-09-09T16:57:37;15.25;49.74
67364;HTU21D;54250;45.572;38.086;2022-09-09T17:00:03;15.22;49.73
67364;HTU21D;54250;45.572;38.086;2022-09-09T17:02:31;15.21;49.80
67364;HTU21D;54250;45.572;38.086;2022-09-09T17:04:57;15.21;49.84
67364;HTU21D;54250;45.572;38.086;2022-09-09T17:07:22;15.23;49.94
67364;HTU21D;54250;45.572;38.086;2022-09-09T17:09:48;15.24;49.86
67364;HTU21D;54250;45.572;38.086;2022-09-09T17:12:14;15.18;49.87
67364;HTU21D;54250;45.572;38.086;2022-09-09T17:14:42;15.14;49.95
67364;HTU21D;54250;45.572;38.086;2022-09-09T17:17:08;15.13;50.09